sensor_id;sensor_type;location;lat;lon;timestamp;P1;durP1;ratioP1;P2;durP2;ratioP2
70008;SDS011;59542;37.950;-122.338;2022-10-26T00:01:05;9.07;;;2.15;;
70008;SDS011;59542;37.950;-122.338;2022-10-26T00:03:35;7.13;;;1.98;;
70008;SDS011;59542;37.950;-122.338;2022-10-26T00:08:32;17.70;;;2.13;;
70008;SDS011;59542;37.950;-122.338;2022-10-26T00:11:00;11.80;;;1.88;;
70008;SDS011;59542;37.950;-122.338;2022-10-26T00:13:26;23.40;;;3.28;;
70008;SDS011;59542;37.950;-122.338;2022-10-26T00:15:53;9.57;;;2.03;;
70008;SDS011;59542;37.950;-122.338;2022-10-26T00:18:19;13.50;;;2.78;;
70008;SDS011;59542;37.950;-122.338;2022-10-26T00:20:46;9.63;;;2.80;;
70008;SDS011;59542;37.950;-122.338;2022-10-26T00:23:12;10.13;;;2.10;;
70008;SDS011;59542;37.950;-122.338;2022-10-26T00:25:38;11.00;;;3.13;;
70008;SDS011;59542;37.950;-122.338;2022-10-26T00:28:04;9.77;;;2.65;;
70008;SDS011;59542;37.950;-122.338;2022-10-26T00:30:30;14.43;;;2.65;;
70008;SDS011;59542;37.950;-122.338;2022-10-26T00:32:57;11.00;;;2.50;;
70008;SDS011;59542;37.950;-122.338;2022-10-26T00:35:23;10.35;;;3.05;;
70008;SDS011;59542;37.950;-122.338;2022-10-26T00:37:53;14.15;;;2.97;;
70008;SDS011;59542;37.950;-122.338;2022-10-26T00:40:20;15.88;;;3.47;;
70008;SDS011;59542;37.950;-122.338;2022-10-26T00:42:47;9.45;;;3.00;;
70008;SDS011;59542;37.950;-122.338;2022-10-26T00:45:20;13.60;;;2.97;;
70008;SDS011;59542;37.950;-122.338;2022-10-26T00:47:58;12.52;;;3.78;;
70008;SDS011;59542;37.950;-122.338;2022-10-26T00:50:38;9.55;;;2.80;;
70008;SDS011;59542;37.950;-122.338;2022-10-26T00:53:07;12.88;;;3.42;;
70008;SDS011;59542;37.950;-122.338;2022-10-26T00:55:36;14.25;;;3.15;;
70008;SDS011;59542;37.950;-122.338;2022-10-26T00:58:07;11.20;;;3.05;;
70008;SDS011;59542;37.950;-122.338;2022-10-26T01:00:35;15.27;;;3.25;;
70008;SDS011;59542;37.950;-122.338;2022-10-26T01:03:03;12.48;;;2.83;;
70008;SDS011;59542;37.950;-122.338;2022-10-26T01:05:31;14.55;;;3.45;;
70008;SDS011;59542;37.950;-122.338;2022-10-26T01:07:59;16.33;;;3.85;;
70008;SDS011;59542;37.950;-122.338;2022-10-26T01:10:27;23.35;;;4.40;;
70008;SDS011;59542;37.950;-122.338;2022-10-26T01:12:54;16.30;;;3.67;;
70008;SDS011;59542;37.950;-122.338;2022-10-26T01:15:26;18.50;;;4.50;;
70008;SDS011;59542;37.950;-122.338;2022-10-26T01:20:47;19.23;;;3.83;;
70008;SDS011;59542;37.950;-122.338;2022-10-26T01:31:43;11.13;;;3.72;;
70008;SDS011;59542;37.950;-122.338;2022-10-26T01:35:02;17.55;;;3.53;;
70008;SDS011;59542;37.950;-122.338;2022-10-26T01:37:22;16.73;;;4.07;;
70008;SDS011;59542;37.950;-122.338;2022-10-26T01:39:54;20.58;;;4.65;;
70008;SDS011;59542;37.950;-122.338;2022-10-26T01:42:28;18.23;;;4.00;;
70008;SDS011;59542;37.950;-122.338;2022-10-26T01:44:58;15.35;;;3.83;;
70008;SDS011;59542;37.950;-122.338;2022-10-26T01:47:29;15.98;;;4.03;;
70008;SDS011;59542;37.950;-122.338;2022-10-26T01:49:58;16.00;;;4.05;;
70008;SDS011;59542;37.950;-122.338;2022-10-26T01:52:27;14.85;;;3.67;;
70008;SDS011;59542;37.950;-122.338;2022-10-26T01:55:05;20.20;;;4.63;;
70008;SDS011;59542;37.950;-122.338;2022-10-26T01:57:52;16.40;;;3.85;;
70008;SDS011;59542;37.950;-122.338;2022-10-26T02:00:25;16.55;;;4.25;;
70008;SDS011;59542;37.950;-122.338;2022-10-26T02:02:58;10.82;;;3.50;;
70008;SDS011;59542;37.950;-122.338;2022-10-26T02:05:35;16.67;;;4.07;;
70008;SDS011;59542;37.950;-122.338;2022-10-26T02:11:19;16.83;;;4.28;;
70008;SDS011;59542;37.950;-122.338;2022-10-26T02:13:56;12.57;;;3.22;;
70008;SDS011;59542;37.950;-122.338;2022-10-26T02:16:54;22.52;;;3.95;;
70008;SDS011;59542;37.950;-122.338;2022-10-26T02:24:45;12.25;;;3.40;;
70008;SDS011;59542;37.950;-122.338;2022-10-26T02:27:25;13.25;;;3.70;;
70008;SDS011;59542;37.950;-122.338;2022-10-26T02:29:55;14.75;;;3.85;;
70008;SDS011;59542;37.950;-122.338;2022-10-26T02:32:24;10.07;;;3.75;;
70008;SDS011;59542;37.950;-122.338;2022-10-26T02:34:54;10.68;;;3.03;;
70008;SDS011;59542;37.950;-122.338;2022-10-26T02:37:24;11.00;;;3.03;;
70008;SDS011;59542;37.950;-122.338;2022-10-26T02:39:52;14.38;;;3.97;;
70008;SDS011;59542;37.950;-122.338;2022-10-26T02:42:21;9.55;;;3.60;;
70008;SDS011;59542;37.950;-122.338;2022-10-26T02:44:50;13.10;;;3.00;;
70008;SDS011;59542;37.950;-122.338;2022-10-26T02:47:22;11.77;;;3.30;;
70008;SDS011;59542;37.950;-122.338;2022-10-26T02:49:50;11.75;;;3.30;;
70008;SDS011;59542;37.950;-122.338;2022-10-26T02:54:55;11.93;;;3.65;;
70008;SDS011;59542;37.950;-122.338;2022-10-26T02:57:36;12.95;;;3.72;;
70008;SDS011;59542;37.950;-122.338;2022-10-26T03:00:06;12.18;;;3.10;;
70008;SDS011;59542;37.950;-122.338;2022-10-26T03:02:34;13.63;;;3.63;;
70008;SDS011;59542;37.950;-122.338;2022-10-26T03:05:42;9.57;;;3.55;;
70008;SDS011;59542;37.950;-122.338;2022-10-26T03:07:51;14.23;;;3.17;;
70008;SDS011;59542;37.950;-122.338;2022-10-26T03:10:18;11.30;;;3.22;;
70008;SDS011;59542;37.950;-122.338;2022-10-26T03:12:44;8.63;;;2.85;;
70008;SDS011;59542;37.950;-122.338;2022-10-26T03:15:11;10.38;;;3.15;;
70008;SDS011;59542;37.950;-122.338;2022-10-26T03:17:37;7.65;;;3.67;;
70008;SDS011;59542;37.950;-122.338;2022-10-26T03:20:04;9.98;;;3.40;;
70008;SDS011;59542;37.950;-122.338;2022-10-26T03:22:30;9.73;;;3.35;;
70008;SDS011;59542;37.950;-122.338;2022-10-26T03:24:57;11.02;;;3.55;;
70008;SDS011;59542;37.950;-122.338;2022-10-26T03:27:23;10.77;;;3.67;;
70008;SDS011;59542;37.950;-122.338;2022-10-26T03:29:51;13.30;;;3.92;;
70008;SDS011;59542;37.950;-122.338;2022-10-26T03:32:18;10.50;;;3.88;;
70008;SDS011;59542;37.950;-122.338;2022-10-26T03:34:44;12.45;;;3.70;;
70008;SDS011;59542;37.950;-122.338;2022-10-26T03:37:10;9.90;;;3.60;;
70008;SDS011;59542;37.950;-122.338;2022-10-26T03:39:37;11.55;;;3.85;;
70008;SDS011;59542;37.950;-122.338;2022-10-26T03:42:03;10.13;;;3.25;;
70008;SDS011;59542;37.950;-122.338;2022-10-26T03:44:29;9.75;;;3.65;;
70008;SDS011;59542;37.950;-122.338;2022-10-26T03:46:55;12.43;;;3.85;;
70008;SDS011;59542;37.950;-122.338;2022-10-26T03:49:21;9.10;;;3.10;;
70008;SDS011;59542;37.950;-122.338;2022-10-26T03:51:48;9.98;;;3.28;;
70008;SDS011;59542;37.950;-122.338;2022-10-26T03:54:14;13.75;;;3.53;;
70008;SDS011;59542;37.950;-122.338;2022-10-26T03:56:40;11.00;;;3.78;;
70008;SDS011;59542;37.950;-122.338;2022-10-26T03:59:06;10.82;;;3.30;;
70008;SDS011;59542;37.950;-122.338;2022-10-26T04:01:32;17.92;;;4.10;;
70008;SDS011;59542;37.950;-122.338;2022-10-26T04:03:58;15.15;;;4.53;;
70008;SDS011;59542;37.950;-122.338;2022-10-26T04:06:25;13.48;;;4.25;;
70008;SDS011;59542;37.950;-122.338;2022-10-26T04:08:51;8.48;;;2.58;;
70008;SDS011;59542;37.950;-122.338;2022-10-26T04:11:22;15.63;;;3.05;;
70008;SDS011;59542;37.950;-122.338;2022-10-26T04:13:48;11.50;;;2.63;;
70008;SDS011;59542;37.950;-122.338;2022-10-26T04:16:14;18.88;;;2.88;;
70008;SDS011;59542;37.950;-122.338;2022-10-26T04:18:40;14.80;;;2.85;;
70008;SDS011;59542;37.950;-122.338;2022-10-26T04:21:07;7.00;;;2.17;;
70008;SDS011;59542;37.950;-122.338;2022-10-26T04:23:33;11.13;;;2.83;;
70008;SDS011;59542;37.950;-122.338;2022-10-26T04:25:59;10.35;;;3.20;;
70008;SDS011;59542;37.950;-122.338;2022-10-26T04:28:25;9.30;;;3.22;;
70008;SDS011;59542;37.950;-122.338;2022-10-26T04:30:51;15.68;;;4.20;;
70008;SDS011;59542;37.950;-122.338;2022-10-26T04:33:17;12.65;;;3.92;;
70008;SDS011;59542;37.950;-122.338;2022-10-26T04:35:44;10.27;;;2.70;;
70008;SDS011;59542;37.950;-122.338;2022-10-26T04:38:10;7.32;;;2.40;;
70008;SDS011;59542;37.950;-122.338;2022-10-26T04:40:36;8.00;;;2.42;;
70008;SDS011;59542;37.950;-122.338;2022-10-26T04:43:02;10.05;;;2.58;;
70008;SDS011;59542;37.950;-122.338;2022-10-26T04:45:29;11.70;;;2.75;;
70008;SDS011;59542;37.950;-122.338;2022-10-26T04:47:59;11.18;;;2.33;;
70008;SDS011;59542;37.950;-122.338;2022-10-26T04:50:33;5.93;;;2.15;;
70008;SDS011;59542;37.950;-122.338;2022-10-26T04:53:00;10.18;;;2.50;;
70008;SDS011;59542;37.950;-122.338;2022-10-26T04:55:26;9.25;;;2.55;;
70008;SDS011;59542;37.950;-122.338;2022-10-26T04:57:52;10.00;;;2.72;;
70008;SDS011;59542;37.950;-122.338;2022-10-26T05:00:18;11.10;;;2.83;;
70008;SDS011;59542;37.950;-122.338;2022-10-26T05:02:45;10.15;;;2.60;;
70008;SDS011;59542;37.950;-122.338;2022-10-26T05:05:11;9.35;;;2.65;;
70008;SDS011;59542;37.950;-122.338;2022-10-26T05:07:37;10.75;;;2.88;;
70008;SDS011;59542;37.950;-122.338;2022-10-26T05:10:04;10.73;;;3.03;;
70008;SDS011;59542;37.950;-122.338;2022-10-26T05:12:30;6.97;;;2.80;;
70008;SDS011;59542;37.950;-122.338;2022-10-26T05:14:57;6.43;;;2.42;;
70008;SDS011;59542;37.950;-122.338;2022-10-26T05:17:26;8.52;;;2.92;;
70008;SDS011;59542;37.950;-122.338;2022-10-26T05:19:52;10.38;;;3.30;;
70008;SDS011;59542;37.950;-122.338;2022-10-26T05:22:25;7.07;;;2.70;;
70008;SDS011;59542;37.950;-122.338;2022-10-26T05:24:51;9.02;;;2.38;;
70008;SDS011;59542;37.950;-122.338;2022-10-26T05:27:17;11.40;;;2.88;;
70008;SDS011;59542;37.950;-122.338;2022-10-26T05:29:43;7.72;;;3.00;;
70008;SDS011;59542;37.950;-122.338;2022-10-26T05:32:10;8.18;;;2.20;;
70008;SDS011;59542;37.950;-122.338;2022-10-26T05:34:36;6.90;;;2.50;;
70008;SDS011;59542;37.950;-122.338;2022-10-26T05:37:02;12.00;;;2.90;;
70008;SDS011;59542;37.950;-122.338;2022-10-26T05:39:28;5.88;;;2.38;;
70008;SDS011;59542;37.950;-122.338;2022-10-26T05:41:54;7.30;;;2.92;;
70008;SDS011;59542;37.950;-122.338;2022-10-26T05:44:20;8.88;;;2.75;;
70008;SDS011;59542;37.950;-122.338;2022-10-26T05:46:46;11.00;;;2.50;;
70008;SDS011;59542;37.950;-122.338;2022-10-26T05:49:13;6.85;;;2.50;;
70008;SDS011;59542;37.950;-122.338;2022-10-26T05:51:40;9.00;;;3.15;;
70008;SDS011;59542;37.950;-122.338;2022-10-26T05:54:06;5.88;;;2.45;;
70008;SDS011;59542;37.950;-122.338;2022-10-26T05:56:36;7.18;;;2.35;;
70008;SDS011;59542;37.950;-122.338;2022-10-26T05:59:12;7.43;;;2.00;;
70008;SDS011;59542;37.950;-122.338;2022-10-26T06:04:37;6.18;;;2.33;;
70008;SDS011;59542;37.950;-122.338;2022-10-26T06:07:13;8.82;;;2.50;;
70008;SDS011;59542;37.950;-122.338;2022-10-26T06:09:41;8.77;;;2.60;;
70008;SDS011;59542;37.950;-122.338;2022-10-26T06:12:08;7.03;;;2.13;;
70008;SDS011;59542;37.950;-122.338;2022-10-26T06:14:36;5.93;;;2.40;;
70008;SDS011;59542;37.950;-122.338;2022-10-26T06:30:17;9.93;;;2.50;;
70008;SDS011;59542;37.950;-122.338;2022-10-26T06:32:44;7.28;;;2.53;;
70008;SDS011;59542;37.950;-122.338;2022-10-26T06:37:59;11.30;;;3.10;;
70008;SDS011;59542;37.950;-122.338;2022-10-26T06:40:30;8.85;;;2.80;;
70008;SDS011;59542;37.950;-122.338;2022-10-26T06:42:59;8.25;;;2.95;;
70008;SDS011;59542;37.950;-122.338;2022-10-26T06:45:26;7.10;;;2.75;;
70008;SDS011;59542;37.950;-122.338;2022-10-26T06:48:03;10.43;;;3.58;;
70008;SDS011;59542;37.950;-122.338;2022-10-26T06:55:53;6.75;;;2.50;;
70008;SDS011;59542;37.950;-122.338;2022-10-26T06:58:23;11.73;;;2.38;;
70008;SDS011;59542;37.950;-122.338;2022-10-26T07:00:55;7.60;;;2.92;;
70008;SDS011;59542;37.950;-122.338;2022-10-26T07:03:22;11.55;;;2.80;;
70008;SDS011;59542;37.950;-122.338;2022-10-26T07:05:48;8.80;;;2.63;;
70008;SDS011;59542;37.950;-122.338;2022-10-26T07:08:14;10.80;;;3.30;;
70008;SDS011;59542;37.950;-122.338;2022-10-26T07:10:40;8.38;;;2.60;;
70008;SDS011;59542;37.950;-122.338;2022-10-26T07:13:08;12.75;;;3.08;;
70008;SDS011;59542;37.950;-122.338;2022-10-26T07:15:35;12.77;;;2.88;;
70008;SDS011;59542;37.950;-122.338;2022-10-26T07:18:03;6.55;;;2.92;;
70008;SDS011;59542;37.950;-122.338;2022-10-26T07:20:31;6.53;;;2.30;;
70008;SDS011;59542;37.950;-122.338;2022-10-26T07:23:01;10.90;;;3.22;;
70008;SDS011;59542;37.950;-122.338;2022-10-26T07:25:28;9.68;;;2.75;;
70008;SDS011;59542;37.950;-122.338;2022-10-26T07:27:57;7.18;;;2.85;;
70008;SDS011;59542;37.950;-122.338;2022-10-26T07:30:25;7.10;;;2.95;;
70008;SDS011;59542;37.950;-122.338;2022-10-26T07:33:02;9.43;;;2.80;;
70008;SDS011;59542;37.950;-122.338;2022-10-26T07:35:31;6.10;;;2.70;;
70008;SDS011;59542;37.950;-122.338;2022-10-26T07:37:58;11.70;;;3.00;;
70008;SDS011;59542;37.950;-122.338;2022-10-26T07:40:25;10.20;;;2.60;;
70008;SDS011;59542;37.950;-122.338;2022-10-26T07:42:54;9.07;;;2.90;;
70008;SDS011;59542;37.950;-122.338;2022-10-26T07:45:22;10.32;;;3.50;;
70008;SDS011;59542;37.950;-122.338;2022-10-26T07:47:49;9.77;;;3.10;;
70008;SDS011;59542;37.950;-122.338;2022-10-26T07:50:15;11.88;;;3.08;;
70008;SDS011;59542;37.950;-122.338;2022-10-26T07:52:41;5.35;;;2.25;;
70008;SDS011;59542;37.950;-122.338;2022-10-26T07:55:08;9.05;;;2.80;;
70008;SDS011;59542;37.950;-122.338;2022-10-26T07:57:35;6.80;;;3.17;;
70008;SDS011;59542;37.950;-122.338;2022-10-26T08:00:05;10.57;;;3.05;;
70008;SDS011;59542;37.950;-122.338;2022-10-26T08:02:34;11.15;;;3.08;;
70008;SDS011;59542;37.950;-122.338;2022-10-26T08:05:00;9.18;;;3.05;;
70008;SDS011;59542;37.950;-122.338;2022-10-26T08:07:27;8.20;;;2.78;;
70008;SDS011;59542;37.950;-122.338;2022-10-26T08:09:53;10.60;;;3.33;;
70008;SDS011;59542;37.950;-122.338;2022-10-26T08:12:19;11.07;;;3.47;;
70008;SDS011;59542;37.950;-122.338;2022-10-26T08:14:46;15.68;;;3.60;;
70008;SDS011;59542;37.950;-122.338;2022-10-26T08:17:12;9.35;;;3.33;;
70008;SDS011;59542;37.950;-122.338;2022-10-26T08:19:38;11.05;;;3.50;;
70008;SDS011;59542;37.950;-122.338;2022-10-26T08:22:04;10.95;;;3.63;;
70008;SDS011;59542;37.950;-122.338;2022-10-26T08:24:30;12.07;;;3.45;;
70008;SDS011;59542;37.950;-122.338;2022-10-26T08:26:57;13.05;;;3.80;;
70008;SDS011;59542;37.950;-122.338;2022-10-26T08:29:23;10.88;;;3.25;;
70008;SDS011;59542;37.950;-122.338;2022-10-26T08:31:49;11.25;;;3.17;;
70008;SDS011;59542;37.950;-122.338;2022-10-26T08:34:15;8.20;;;3.47;;
70008;SDS011;59542;37.950;-122.338;2022-10-26T08:36:41;12.10;;;3.20;;
70008;SDS011;59542;37.950;-122.338;2022-10-26T08:39:08;13.35;;;3.40;;
70008;SDS011;59542;37.950;-122.338;2022-10-26T08:47:22;15.05;;;4.00;;
70008;SDS011;59542;37.950;-122.338;2022-10-26T08:49:56;10.25;;;3.03;;
70008;SDS011;59542;37.950;-122.338;2022-10-26T08:52:39;17.70;;;4.25;;
70008;SDS011;59542;37.950;-122.338;2022-10-26T08:55:13;19.23;;;3.78;;
70008;SDS011;59542;37.950;-122.338;2022-10-26T08:57:42;16.80;;;4.25;;
70008;SDS011;59542;37.950;-122.338;2022-10-26T09:00:14;11.23;;;3.63;;
70008;SDS011;59542;37.950;-122.338;2022-10-26T09:02:42;14.93;;;3.90;;
70008;SDS011;59542;37.950;-122.338;2022-10-26T09:05:15;17.60;;;4.75;;
70008;SDS011;59542;37.950;-122.338;2022-10-26T09:10:49;12.82;;;4.03;;
70008;SDS011;59542;37.950;-122.338;2022-10-26T09:16:22;10.23;;;3.85;;
70008;SDS011;59542;37.950;-122.338;2022-10-26T09:24:41;15.98;;;4.00;;
70008;SDS011;59542;37.950;-122.338;2022-10-26T09:29:46;11.57;;;3.78;;
70008;SDS011;59542;37.950;-122.338;2022-10-26T09:32:17;15.20;;;4.63;;
70008;SDS011;59542;37.950;-122.338;2022-10-26T09:34:54;18.63;;;4.35;;
70008;SDS011;59542;37.950;-122.338;2022-10-26T09:37:28;14.50;;;4.45;;
70008;SDS011;59542;37.950;-122.338;2022-10-26T09:40:07;19.75;;;4.72;;
70008;SDS011;59542;37.950;-122.338;2022-10-26T09:43:19;27.40;;;5.97;;
70008;SDS011;59542;37.950;-122.338;2022-10-26T09:45:44;15.85;;;4.63;;
70008;SDS011;59542;37.950;-122.338;2022-10-26T09:51:10;17.02;;;4.78;;
70008;SDS011;59542;37.950;-122.338;2022-10-26T09:53:37;15.70;;;4.70;;
70008;SDS011;59542;37.950;-122.338;2022-10-26T09:56:04;15.98;;;4.10;;
70008;SDS011;59542;37.950;-122.338;2022-10-26T09:58:40;21.38;;;5.40;;
70008;SDS011;59542;37.950;-122.338;2022-10-26T10:06:41;18.35;;;5.03;;
70008;SDS011;59542;37.950;-122.338;2022-10-26T10:09:27;23.45;;;5.95;;
70008;SDS011;59542;37.950;-122.338;2022-10-26T10:11:54;18.27;;;4.80;;
70008;SDS011;59542;37.950;-122.338;2022-10-26T10:14:29;16.23;;;4.88;;
70008;SDS011;59542;37.950;-122.338;2022-10-26T10:16:59;13.15;;;4.32;;
70008;SDS011;59542;37.950;-122.338;2022-10-26T10:19:32;19.75;;;4.88;;
70008;SDS011;59542;37.950;-122.338;2022-10-26T10:22:00;23.13;;;4.82;;
70008;SDS011;59542;37.950;-122.338;2022-10-26T10:24:39;16.40;;;4.57;;
70008;SDS011;59542;37.950;-122.338;2022-10-26T10:32:27;15.60;;;4.50;;
70008;SDS011;59542;37.950;-122.338;2022-10-26T10:34:58;18.73;;;4.80;;
70008;SDS011;59542;37.950;-122.338;2022-10-26T10:40:08;13.38;;;4.05;;
70008;SDS011;59542;37.950;-122.338;2022-10-26T10:42:45;15.07;;;4.18;;
70008;SDS011;59542;37.950;-122.338;2022-10-26T10:45:26;16.85;;;4.15;;
70008;SDS011;59542;37.950;-122.338;2022-10-26T10:47:57;18.00;;;4.15;;
70008;SDS011;59542;37.950;-122.338;2022-10-26T10:50:38;15.60;;;4.80;;
70008;SDS011;59542;37.950;-122.338;2022-10-26T11:04:50;18.83;;;5.18;;
70008;SDS011;59542;37.950;-122.338;2022-10-26T11:08:01;19.08;;;4.43;;
70008;SDS011;59542;37.950;-122.338;2022-10-26T11:10:29;16.83;;;5.20;;
70008;SDS011;59542;37.950;-122.338;2022-10-26T11:13:03;16.90;;;4.47;;
70008;SDS011;59542;37.950;-122.338;2022-10-26T11:15:37;16.00;;;4.05;;
70008;SDS011;59542;37.950;-122.338;2022-10-26T11:18:07;16.63;;;4.25;;
70008;SDS011;59542;37.950;-122.338;2022-10-26T11:20:41;23.45;;;3.90;;
70008;SDS011;59542;37.950;-122.338;2022-10-26T11:23:21;15.13;;;4.28;;
70008;SDS011;59542;37.950;-122.338;2022-10-26T11:25:59;23.83;;;4.93;;
70008;SDS011;59542;37.950;-122.338;2022-10-26T11:28:40;14.75;;;3.60;;
70008;SDS011;59542;37.950;-122.338;2022-10-26T11:31:26;15.10;;;3.42;;
70008;SDS011;59542;37.950;-122.338;2022-10-26T11:34:04;10.60;;;3.83;;
70008;SDS011;59542;37.950;-122.338;2022-10-26T11:36:45;12.43;;;3.55;;
70008;SDS011;59542;37.950;-122.338;2022-10-26T11:39:24;12.60;;;3.20;;
70008;SDS011;59542;37.950;-122.338;2022-10-26T11:42:05;15.52;;;3.95;;
70008;SDS011;59542;37.950;-122.338;2022-10-26T11:45:36;15.25;;;3.60;;
70008;SDS011;59542;37.950;-122.338;2022-10-26T11:47:51;12.10;;;4.13;;
70008;SDS011;59542;37.950;-122.338;2022-10-26T11:50:23;13.53;;;4.20;;
70008;SDS011;59542;37.950;-122.338;2022-10-26T11:53:01;11.65;;;3.40;;
70008;SDS011;59542;37.950;-122.338;2022-10-26T11:55:53;12.02;;;3.67;;
70008;SDS011;59542;37.950;-122.338;2022-10-26T11:58:26;10.25;;;3.00;;
70008;SDS011;59542;37.950;-122.338;2022-10-26T12:00:59;12.38;;;3.92;;
70008;SDS011;59542;37.950;-122.338;2022-10-26T12:03:35;14.88;;;4.13;;
70008;SDS011;59542;37.950;-122.338;2022-10-26T12:06:10;14.75;;;3.78;;
70008;SDS011;59542;37.950;-122.338;2022-10-26T12:08:40;18.45;;;3.83;;
70008;SDS011;59542;37.950;-122.338;2022-10-26T12:13:54;12.55;;;4.32;;
70008;SDS011;59542;37.950;-122.338;2022-10-26T12:17:09;15.02;;;4.38;;
70008;SDS011;59542;37.950;-122.338;2022-10-26T12:19:20;16.17;;;4.00;;
70008;SDS011;59542;37.950;-122.338;2022-10-26T12:22:10;13.18;;;4.22;;
70008;SDS011;59542;37.950;-122.338;2022-10-26T12:24:46;16.50;;;4.10;;
70008;SDS011;59542;37.950;-122.338;2022-10-26T12:27:53;16.35;;;4.95;;
70008;SDS011;59542;37.950;-122.338;2022-10-26T12:30:26;18.42;;;5.35;;
70008;SDS011;59542;37.950;-122.338;2022-10-26T12:33:01;22.83;;;5.40;;
70008;SDS011;59542;37.950;-122.338;2022-10-26T12:35:47;14.15;;;4.63;;
70008;SDS011;59542;37.950;-122.338;2022-10-26T12:43:36;25.15;;;5.30;;
70008;SDS011;59542;37.950;-122.338;2022-10-26T12:48:48;25.42;;;5.32;;
70008;SDS011;59542;37.950;-122.338;2022-10-26T12:56:49;23.33;;;5.18;;
70008;SDS011;59542;37.950;-122.338;2022-10-26T13:07:23;13.95;;;4.30;;
70008;SDS011;59542;37.950;-122.338;2022-10-26T13:09:57;16.33;;;4.63;;
70008;SDS011;59542;37.950;-122.338;2022-10-26T13:12:28;9.63;;;3.53;;
70008;SDS011;59542;37.950;-122.338;2022-10-26T13:15:04;15.52;;;4.07;;
70008;SDS011;59542;37.950;-122.338;2022-10-26T13:17:43;18.70;;;4.30;;
70008;SDS011;59542;37.950;-122.338;2022-10-26T13:20:32;13.27;;;4.63;;
70008;SDS011;59542;37.950;-122.338;2022-10-26T13:23:01;10.98;;;3.30;;
70008;SDS011;59542;37.950;-122.338;2022-10-26T13:25:38;15.52;;;4.13;;
70008;SDS011;59542;37.950;-122.338;2022-10-26T13:28:06;11.10;;;3.15;;
70008;SDS011;59542;37.950;-122.338;2022-10-26T13:30:51;7.45;;;2.92;;
70008;SDS011;59542;37.950;-122.338;2022-10-26T13:33:21;11.75;;;3.63;;
70008;SDS011;59542;37.950;-122.338;2022-10-26T13:35:51;16.63;;;3.10;;
70008;SDS011;59542;37.950;-122.338;2022-10-26T13:38:21;11.75;;;3.47;;
70008;SDS011;59542;37.950;-122.338;2022-10-26T13:40:52;10.90;;;3.60;;
70008;SDS011;59542;37.950;-122.338;2022-10-26T13:43:27;13.88;;;3.63;;
70008;SDS011;59542;37.950;-122.338;2022-10-26T13:50:56;8.68;;;3.22;;
70008;SDS011;59542;37.950;-122.338;2022-10-26T13:59:09;9.48;;;3.13;;
70008;SDS011;59542;37.950;-122.338;2022-10-26T14:01:38;6.97;;;2.95;;
70008;SDS011;59542;37.950;-122.338;2022-10-26T14:04:25;10.20;;;2.95;;
70008;SDS011;59542;37.950;-122.338;2022-10-26T14:06:52;11.45;;;3.20;;
70008;SDS011;59542;37.950;-122.338;2022-10-26T14:09:19;12.63;;;3.20;;
70008;SDS011;59542;37.950;-122.338;2022-10-26T14:11:54;11.65;;;3.30;;
70008;SDS011;59542;37.950;-122.338;2022-10-26T14:14:29;7.95;;;2.67;;
70008;SDS011;59542;37.950;-122.338;2022-10-26T14:16:59;12.98;;;3.60;;
70008;SDS011;59542;37.950;-122.338;2022-10-26T14:19:27;11.65;;;3.83;;
70008;SDS011;59542;37.950;-122.338;2022-10-26T14:21:55;8.55;;;3.08;;
70008;SDS011;59542;37.950;-122.338;2022-10-26T14:24:22;7.97;;;3.25;;
70008;SDS011;59542;37.950;-122.338;2022-10-26T14:26:53;5.15;;;2.55;;
70008;SDS011;59542;37.950;-122.338;2022-10-26T14:29:21;9.85;;;3.40;;
70008;SDS011;59542;37.950;-122.338;2022-10-26T14:31:51;7.85;;;2.70;;
70008;SDS011;59542;37.950;-122.338;2022-10-26T14:34:21;10.18;;;3.22;;
70008;SDS011;59542;37.950;-122.338;2022-10-26T14:36:55;5.30;;;2.80;;
70008;SDS011;59542;37.950;-122.338;2022-10-26T14:39:29;7.35;;;2.90;;
70008;SDS011;59542;37.950;-122.338;2022-10-26T14:42:13;9.63;;;3.17;;
70008;SDS011;59542;37.950;-122.338;2022-10-26T14:44:55;14.10;;;3.10;;
70008;SDS011;59542;37.950;-122.338;2022-10-26T14:47:26;12.48;;;3.33;;
70008;SDS011;59542;37.950;-122.338;2022-10-26T14:49:55;16.42;;;4.13;;
70008;SDS011;59542;37.950;-122.338;2022-10-26T14:52:23;7.70;;;2.50;;
70008;SDS011;59542;37.950;-122.338;2022-10-26T14:55:12;14.07;;;3.35;;
70008;SDS011;59542;37.950;-122.338;2022-10-26T14:57:41;14.75;;;3.38;;
70008;SDS011;59542;37.950;-122.338;2022-10-26T15:00:13;8.45;;;2.50;;
70008;SDS011;59542;37.950;-122.338;2022-10-26T15:02:45;6.65;;;2.45;;
70008;SDS011;59542;37.950;-122.338;2022-10-26T15:07:49;7.55;;;2.35;;
70008;SDS011;59542;37.950;-122.338;2022-10-26T15:15:49;6.78;;;2.30;;
70008;SDS011;59542;37.950;-122.338;2022-10-26T15:20:45;5.35;;;2.45;;
70008;SDS011;59542;37.950;-122.338;2022-10-26T15:23:13;6.65;;;2.92;;
70008;SDS011;59542;37.950;-122.338;2022-10-26T15:25:40;7.25;;;2.40;;
70008;SDS011;59542;37.950;-122.338;2022-10-26T15:28:20;7.18;;;2.17;;
70008;SDS011;59542;37.950;-122.338;2022-10-26T15:31:06;7.93;;;2.47;;
70008;SDS011;59542;37.950;-122.338;2022-10-26T15:33:37;5.05;;;2.33;;
70008;SDS011;59542;37.950;-122.338;2022-10-26T15:38:37;11.80;;;2.58;;
70008;SDS011;59542;37.950;-122.338;2022-10-26T15:41:03;8.27;;;2.20;;
70008;SDS011;59542;37.950;-122.338;2022-10-26T15:43:38;8.00;;;2.35;;
70008;SDS011;59542;37.950;-122.338;2022-10-26T15:46:05;5.72;;;1.95;;
70008;SDS011;59542;37.950;-122.338;2022-10-26T15:48:31;7.60;;;2.15;;
70008;SDS011;59542;37.950;-122.338;2022-10-26T15:50:58;5.80;;;2.00;;
70008;SDS011;59542;37.950;-122.338;2022-10-26T15:53:25;7.40;;;2.45;;
70008;SDS011;59542;37.950;-122.338;2022-10-26T15:55:52;5.90;;;2.20;;
70008;SDS011;59542;37.950;-122.338;2022-10-26T15:58:21;6.15;;;2.13;;
70008;SDS011;59542;37.950;-122.338;2022-10-26T16:00:47;5.38;;;1.88;;
70008;SDS011;59542;37.950;-122.338;2022-10-26T16:03:15;9.95;;;2.00;;
70008;SDS011;59542;37.950;-122.338;2022-10-26T16:05:50;4.10;;;1.48;;
70008;SDS011;59542;37.950;-122.338;2022-10-26T16:10:48;7.22;;;2.03;;
70008;SDS011;59542;37.950;-122.338;2022-10-26T16:13:15;11.32;;;2.83;;
70008;SDS011;59542;37.950;-122.338;2022-10-26T16:15:41;6.38;;;2.20;;
70008;SDS011;59542;37.950;-122.338;2022-10-26T16:18:08;8.95;;;2.47;;
70008;SDS011;59542;37.950;-122.338;2022-10-26T16:20:35;7.50;;;2.50;;
70008;SDS011;59542;37.950;-122.338;2022-10-26T16:23:01;7.00;;;1.98;;
70008;SDS011;59542;37.950;-122.338;2022-10-26T16:25:31;4.43;;;1.52;;
70008;SDS011;59542;37.950;-122.338;2022-10-26T16:28:00;4.10;;;1.73;;
70008;SDS011;59542;37.950;-122.338;2022-10-26T16:30:27;7.63;;;1.40;;
70008;SDS011;59542;37.950;-122.338;2022-10-26T16:32:54;8.73;;;1.80;;
70008;SDS011;59542;37.950;-122.338;2022-10-26T16:35:21;5.05;;;1.30;;
70008;SDS011;59542;37.950;-122.338;2022-10-26T16:37:47;3.03;;;1.20;;
70008;SDS011;59542;37.950;-122.338;2022-10-26T16:40:13;5.70;;;1.63;;
70008;SDS011;59542;37.950;-122.338;2022-10-26T16:42:39;3.58;;;1.33;;
70008;SDS011;59542;37.950;-122.338;2022-10-26T16:45:11;5.93;;;1.63;;
70008;SDS011;59542;37.950;-122.338;2022-10-26T16:47:39;5.65;;;1.20;;
70008;SDS011;59542;37.950;-122.338;2022-10-26T16:50:07;5.03;;;1.90;;